This is the latest recevied weather packets stored in our database for station/object DM4XI-13. If no packets are shown the sender has not sent any weather packets the latest 10 day(s).
| Time | Temp. | Humidity | Pressure | Rain* | Wind** | Luminosity | Snow |
|---|---|---|---|---|---|---|---|
| 1777453131 | 13.33° C | 28% | 1021.2 hPa | 0 mm | 1.34 m/s, 42° | 517 W/m² | - |
| 1777453070 | 13.33° C | 30% | 1021.1 hPa | 0 mm | 0.45 m/s, 185° | 515 W/m² | - |
| 1777453010 | 13.33° C | 30% | 1021.2 hPa | 0 mm | 0.89 m/s, 52° | 513 W/m² | - |
| 1777452948 | 13.33° C | 30% | 1021.1 hPa | 0 mm | 1.79 m/s, 67° | 511 W/m² | - |
| 1777452887 | 13.33° C | 29% | 1021.1 hPa | 0 mm | 1.79 m/s, 32° | 510 W/m² | - |
| 1777452826 | 13.33° C | 29% | 1021.2 hPa | 0 mm | 2.24 m/s, 2° | 508 W/m² | - |
| 1777452765 | 13.33° C | 30% | 1021.1 hPa | 0 mm | 0.89 m/s, 20° | 506 W/m² | - |
| 1777452704 | 13.33° C | 29% | 1021.1 hPa | 0 mm | 0.89 m/s, 180° | 504 W/m² | - |
| 1777452643 | 13.33° C | 29% | 1021.1 hPa | 0 mm | 1.79 m/s, 97° | 503 W/m² | - |
| 1777452582 | 13.33° C | 31% | 1021.2 hPa | 0 mm | 1.34 m/s, 205° | 502 W/m² | - |
| 1777452521 | 13.33° C | 31% | 1021.1 hPa | 0 mm | 2.24 m/s, 33° | 499 W/m² | - |
| 1777452460 | 13.33° C | 30% | 1021.1 hPa | 0 mm | 1.34 m/s, 132° | 498 W/m² | - |
| 1777452399 | 13.33° C | 30% | 1021 hPa | 0 mm | 1.34 m/s, 109° | 497 W/m² | - |
| 1777452338 | 12.78° C | 29% | 1021.1 hPa | 0 mm | 0.89 m/s, 14° | 495 W/m² | - |
| 1777452277 | 12.78° C | 29% | 1021 hPa | 0 mm | 0.45 m/s, 200° | 492 W/m² | - |
| 1777452216 | 12.78° C | 29% | 1021 hPa | 0 mm | 0.89 m/s, 17° | 491 W/m² | - |
| 1777452155 | 12.78° C | 30% | 1020.9 hPa | 0 mm | 1.34 m/s, 163° | 489 W/m² | - |
| 1777452094 | 12.78° C | 30% | 1021 hPa | 0 mm | 1.79 m/s, 63° | 487 W/m² | - |
| 1777452033 | 12.78° C | 30% | 1021.1 hPa | 0 mm | 2.24 m/s, 57° | 486 W/m² | - |
| 1777451972 | 12.78° C | 30% | 1021 hPa | 0 mm | 1.79 m/s, 190° | 484 W/m² | - |
| 1777451911 | 12.78° C | 30% | 1021.1 hPa | 0 mm | 2.68 m/s, 150° | 481 W/m² | - |
| 1777451850 | 12.78° C | 30% | 1021.3 hPa | 0 mm | 2.24 m/s, 296° | 480 W/m² | - |
| 1777451789 | 12.22° C | 30% | 1021.2 hPa | 0 mm | 1.79 m/s, 134° | 476 W/m² | - |
| 1777451728 | 12.22° C | 30% | 1021.1 hPa | 0 mm | 0.89 m/s, 204° | 476 W/m² | - |
| 1777451667 | 12.22° C | 30% | 1021.1 hPa | 0 mm | 1.79 m/s, 28° | 476 W/m² | - |
* Rain latest hour (hover to see other rain measurements)
** Current wind speed in m/s (hover to see current wind gust speed)